Time;durP1;ratioP1;P1;durP2;ratioP2;P2;SDS_P1;SDS_P2;PMS_P1;PMS_P2;Temp;Humidity;BMP_temperature;BMP_pressure;BME280_temperature;BME280_humidity;BME280_pressure;Samples;Min_cycle;Max_cycle;Signal;HPM_P1;HPM_P2
2023/07/03 00:00:01;;;;;;;6.65;1.52;;;18.80;99.90;;;;;;4979338;28;20042;-92
2023/07/03 00:02:26;;;;;;;4.63;1.55;;;19.00;99.90;;;;;;4992350;28;20038;-93
2023/07/03 00:04:52;;;;;;;4.10;1.75;;;19.10;99.90;;;;;;4972510;28;20027;-94
2023/07/03 00:07:17;;;;;;;5.90;1.20;;;19.20;99.90;;;;;;4972604;28;20034;-94
2023/07/03 00:09:44;;;;;;;2.42;1.00;;;19.20;99.90;;;;;;4972776;28;20037;-94
2023/07/03 00:12:11;;;;;;;2.10;1.00;;;19.20;99.90;;;;;;4971660;28;20030;-92
2023/07/03 00:14:37;;;;;;;5.82;1.17;;;19.20;99.90;;;;;;4973158;28;20045;-93
2023/07/03 00:17:03;;;;;;;3.45;0.93;;;19.20;99.90;;;;;;4971255;28;20042;-93
2023/07/03 00:19:30;;;;;;;3.85;1.23;;;19.20;99.90;;;;;;4971728;28;20031;-94
2023/07/03 00:22:00;;;;;;;2.30;1.02;;;19.10;99.90;;;;;;4970786;28;20027;-92
2023/07/03 00:24:28;;;;;;;3.05;1.27;;;19.10;99.90;;;;;;4970751;28;20030;-94
2023/07/03 00:26:55;;;;;;;3.70;1.15;;;19.10;99.90;;;;;;4971277;28;20090;-93
2023/07/03 00:29:21;;;;;;;4.65;2.10;;;19.10;99.90;;;;;;4970669;28;20062;-92
2023/07/03 00:31:46;;;;;;;6.25;1.58;;;19.10;99.90;;;;;;4971972;28;20027;-94
2023/07/03 00:34:12;;;;;;;3.58;1.30;;;19.10;99.90;;;;;;4972389;28;20410;-93
2023/07/03 00:36:38;;;;;;;6.90;0.93;;;19.10;99.90;;;;;;4972679;28;20134;-94
2023/07/03 00:39:04;;;;;;;3.78;0.85;;;19.10;99.90;;;;;;4971494;28;20057;-95
2023/07/03 00:41:30;;;;;;;3.55;1.00;;;19.20;99.90;;;;;;4972041;28;20070;-94
2023/07/03 00:43:56;;;;;;;5.03;1.20;;;19.20;99.90;;;;;;4972241;28;20023;-93
2023/07/03 00:46:22;;;;;;;5.38;1.20;;;19.10;99.90;;;;;;4976019;28;20027;-93
2023/07/03 00:48:48;;;;;;;2.67;0.80;;;19.10;99.90;;;;;;4974547;28;20027;-93
2023/07/03 00:51:15;;;;;;;7.10;1.00;;;19.10;99.90;;;;;;4985152;28;20018;-92
2023/07/03 00:53:41;;;;;;;1.33;0.82;;;19.10;99.90;;;;;;4996896;28;20029;-91
2023/07/03 00:56:07;;;;;;;2.92;1.13;;;19.00;99.90;;;;;;4994223;28;20023;-92
2023/07/03 00:58:33;;;;;;;6.30;1.25;;;19.00;99.90;;;;;;4973867;28;20072;-93
2023/07/03 01:01:08;;;;;;;5.38;1.10;;;18.90;99.90;;;;;;4973630;28;20023;-93
2023/07/03 01:03:42;;;;;;;5.07;1.47;;;18.80;99.90;;;;;;4973083;28;20060;-92
2023/07/03 01:06:16;;;;;;;4.18;1.05;;;18.70;99.90;;;;;;4972811;28;20023;-93
2023/07/03 01:08:42;;;;;;;5.40;1.85;;;18.70;99.90;;;;;;4973023;28;20165;-93
2023/07/03 01:11:08;;;;;;;7.72;1.30;;;18.60;99.90;;;;;;4974158;28;20045;-94
2023/07/03 01:13:36;;;;;;;4.38;1.20;;;18.60;99.90;;;;;;4975021;28;20030;-93
2023/07/03 01:16:04;;;;;;;8.13;1.33;;;18.50;99.90;;;;;;4975561;28;20088;-91
2023/07/03 01:18:32;;;;;;;5.45;1.67;;;18.50;99.90;;;;;;4973233;28;20122;-95
2023/07/03 01:21:07;;;;;;;3.28;1.50;;;18.40;99.90;;;;;;4971536;28;20027;-92
2023/07/03 01:24:00;;;;;;;4.30;1.52;;;18.40;99.90;;;;;;4974154;28;20437;-93
2023/07/03 01:26:27;;;;;;;3.67;2.00;;;18.30;99.90;;;;;;4973608;28;20031;-94
2023/07/03 01:28:58;;;;;;;9.32;2.10;;;18.20;99.90;;;;;;4975674;28;20035;-92
2023/07/03 01:31:27;;;;;;;4.65;1.50;;;18.20;99.90;;;;;;4973196;28;20080;-92
2023/07/03 01:33:55;;;;;;;5.10;1.70;;;18.10;99.90;;;;;;4973885;28;20061;-91
2023/07/03 01:36:22;;;;;;;8.38;1.83;;;18.00;99.90;;;;;;4974633;28;20046;-92
2023/07/03 01:38:49;;;;;;;7.70;1.45;;;18.00;99.90;;;;;;4973416;28;20398;-93
2023/07/03 01:41:17;;;;;;;4.95;1.42;;;17.90;99.90;;;;;;4972739;28;20030;-93
2023/07/03 01:43:44;;;;;;;2.90;1.48;;;17.80;99.90;;;;;;4975503;28;20092;-94
2023/07/03 01:46:10;;;;;;;10.68;1.70;;;17.70;99.90;;;;;;4972236;28;20118;-93
2023/07/03 01:48:36;;;;;;;8.63;1.55;;;17.70;99.90;;;;;;4973365;28;20466;-93
2023/07/03 01:51:04;;;;;;;4.40;1.58;;;17.60;99.90;;;;;;4973996;28;20105;-93
2023/07/03 01:54:01;;;;;;;7.78;2.30;;;17.60;99.90;;;;;;4973017;28;20030;-92
2023/07/03 01:56:32;;;;;;;3.38;1.20;;;17.60;99.90;;;;;;4981748;28;20165;-92
2023/07/03 01:59:10;;;;;;;5.93;1.92;;;17.50;99.90;;;;;;4971916;28;20038;-92
2023/07/03 02:02:23;;;;;;;5.25;1.60;;;17.50;99.90;;;;;;4972784;28;20050;-92
2023/07/03 02:04:59;;;;;;;6.53;1.40;;;17.40;99.90;;;;;;5007582;28;20035;-93
2023/07/03 02:07:28;;;;;;;3.60;1.92;;;17.40;99.90;;;;;;4980103;28;20026;-93
2023/07/03 02:09:54;;;;;;;4.00;1.42;;;17.30;99.90;;;;;;4974339;28;20470;-92
2023/07/03 02:12:19;;;;;;;6.25;1.75;;;17.30;99.90;;;;;;4977742;28;20015;-92
2023/07/03 02:14:45;;;;;;;3.45;2.03;;;17.30;99.90;;;;;;4995422;28;20035;-91
2023/07/03 02:17:12;;;;;;;5.47;1.48;;;17.20;99.90;;;;;;4974385;28;20039;-92
2023/07/03 02:19:37;;;;;;;8.05;1.75;;;17.20;99.90;;;;;;4973460;28;20476;-92
2023/07/03 02:22:03;;;;;;;3.30;1.40;;;17.20;99.90;;;;;;4973231;28;20030;-91
2023/07/03 02:24:29;;;;;;;6.43;1.90;;;17.10;99.90;;;;;;4973170;28;20747;-93
2023/07/03 02:26:55;;;;;;;8.00;1.73;;;17.00;99.90;;;;;;4973279;28;20037;-93
2023/07/03 02:29:21;;;;;;;6.72;1.63;;;17.00;99.90;;;;;;4973336;28;20114;-93
2023/07/03 02:31:47;;;;;;;4.93;1.85;;;16.90;99.90;;;;;;4972000;28;20054;-93
2023/07/03 02:34:12;;;;;;;6.80;2.33;;;17.00;99.90;;;;;;4974843;28;20031;-91
2023/07/03 02:36:39;;;;;;;4.20;1.35;;;17.00;99.90;;;;;;4972352;28;20407;-91
2023/07/03 02:39:07;;;;;;;2.55;1.25;;;17.00;99.90;;;;;;4971440;28;20038;-92
2023/07/03 02:41:33;;;;;;;6.07;1.67;;;17.00;99.90;;;;;;4972746;28;20019;-92
2023/07/03 02:43:59;;;;;;;5.70;2.08;;;17.00;99.90;;;;;;4972529;28;20395;-92
2023/07/03 02:46:25;;;;;;;7.70;1.83;;;17.00;99.90;;;;;;4972721;28;20027;-92
2023/07/03 02:48:51;;;;;;;4.93;2.10;;;17.10;99.90;;;;;;4972467;28;20131;-92
2023/07/03 02:51:16;;;;;;;4.70;1.73;;;17.10;99.90;;;;;;4972346;28;20501;-93
2023/07/03 02:53:42;;;;;;;2.83;1.77;;;17.20;99.90;;;;;;4972148;28;20046;-92
2023/07/03 02:56:08;;;;;;;3.35;1.60;;;17.20;99.90;;;;;;4972305;28;20015;-91
2023/07/03 02:58:34;;;;;;;3.45;1.70;;;17.20;99.90;;;;;;4971985;28;20181;-93
2023/07/03 03:01:01;;;;;;;4.22;1.88;;;17.20;99.90;;;;;;4970948;28;20034;-92
2023/07/03 03:03:27;;;;;;;5.22;1.77;;;17.20;99.90;;;;;;4972828;28;20106;-92
2023/07/03 03:05:55;;;;;;;5.55;1.85;;;17.10;99.90;;;;;;4972653;28;20115;-91
2023/07/03 03:08:21;;;;;;;8.93;2.45;;;17.10;99.90;;;;;;4971499;28;20035;-92
2023/07/03 03:10:47;;;;;;;7.25;2.33;;;17.10;99.90;;;;;;4972229;28;20101;-91
2023/07/03 03:13:13;;;;;;;3.85;2.00;;;17.00;99.90;;;;;;4971049;28;20030;-91
2023/07/03 03:15:40;;;;;;;4.82;2.13;;;17.00;99.90;;;;;;4971136;28;20027;-92
2023/07/03 03:18:06;;;;;;;3.47;1.80;;;17.00;99.90;;;;;;4970875;28;20094;-92
2023/07/03 03:20:31;;;;;;;4.65;1.90;;;17.10;99.90;;;;;;4970781;28;20026;-91
2023/07/03 03:22:57;;;;;;;4.28;1.90;;;17.10;99.90;;;;;;4971787;28;20079;-92
2023/07/03 03:25:23;;;;;;;7.25;1.90;;;17.10;99.90;;;;;;4970711;28;20038;-92
2023/07/03 03:27:49;;;;;;;5.78;2.63;;;17.20;99.90;;;;;;4971937;28;20054;-92
2023/07/03 03:30:14;;;;;;;7.07;2.65;;;17.20;99.90;;;;;;4971640;28;20038;-91
2023/07/03 03:32:40;;;;;;;5.72;1.88;;;17.20;99.90;;;;;;4970856;28;20023;-93
2023/07/03 03:35:06;;;;;;;7.13;1.73;;;17.30;99.90;;;;;;4970910;28;20080;-93
2023/07/03 03:37:32;;;;;;;4.15;2.08;;;17.40;99.90;;;;;;4970334;28;20061;-92
2023/07/03 03:39:58;;;;;;;5.70;1.50;;;17.50;99.90;;;;;;4970477;28;20039;-89
2023/07/03 03:42:23;;;;;;;6.25;2.13;;;17.60;99.90;;;;;;4970692;28;20030;-92
2023/07/03 03:44:49;;;;;;;4.93;1.48;;;17.70;99.90;;;;;;4970538;28;20035;-92
2023/07/03 03:47:14;;;;;;;3.97;1.90;;;17.80;99.90;;;;;;4969974;28;20085;-92
2023/07/03 03:49:40;;;;;;;3.53;1.77;;;17.90;99.90;;;;;;4970498;28;20034;-91
2023/07/03 03:52:07;;;;;;;7.25;2.17;;;17.90;99.90;;;;;;4971494;28;20019;-92
2023/07/03 03:54:32;;;;;;;6.88;2.30;;;18.10;99.90;;;;;;4971839;28;20372;-92
2023/07/03 03:56:58;;;;;;;2.67;1.88;;;18.10;99.90;;;;;;4969880;28;20042;-93
2023/07/03 03:59:24;;;;;;;4.20;1.60;;;18.20;99.90;;;;;;4969305;28;20030;-92
2023/07/03 04:01:50;;;;;;;3.17;1.60;;;18.20;99.90;;;;;;4970874;28;20030;-92
2023/07/03 04:04:16;;;;;;;3.13;1.50;;;18.30;99.90;;;;;;4971998;28;20038;-92
2023/07/03 04:06:43;;;;;;;4.10;1.80;;;18.40;99.90;;;;;;4971778;28;20023;-92
2023/07/03 04:09:09;;;;;;;11.95;2.03;;;18.50;99.90;;;;;;4971607;28;20035;-91
2023/07/03 04:11:35;;;;;;;3.85;1.98;;;18.90;99.90;;;;;;4971868;28;20027;-91
2023/07/03 04:14:01;;;;;;;4.82;1.90;;;19.30;99.90;;;;;;4979828;28;20030;-89
2023/07/03 04:16:30;;;;;;;4.53;1.83;;;19.50;99.90;;;;;;4975471;28;20019;-91
2023/07/03 04:18:55;;;;;;;6.18;2.38;;;19.60;99.90;;;;;;4972407;28;20483;-92
2023/07/03 04:21:21;;;;;;;5.00;1.95;;;19.70;99.90;;;;;;4974900;28;20057;-92
2023/07/03 04:23:47;;;;;;;3.20;1.30;;;19.80;99.90;;;;;;4986363;28;20041;-91
2023/07/03 04:26:13;;;;;;;5.22;1.75;;;19.80;99.90;;;;;;4993564;28;20048;-90
2023/07/03 04:28:39;;;;;;;4.30;2.17;;;19.70;99.90;;;;;;4988806;28;20031;-91
2023/07/03 04:31:05;;;;;;;3.60;1.75;;;19.70;99.90;;;;;;4973769;28;20053;-92
2023/07/03 04:33:31;;;;;;;6.13;2.00;;;19.80;99.90;;;;;;4973494;28;20491;-92
2023/07/03 04:35:57;;;;;;;3.40;1.88;;;19.90;99.90;;;;;;4972978;28;20118;-90
2023/07/03 04:38:23;;;;;;;3.70;1.40;;;20.10;99.90;;;;;;4973248;28;20043;-92
2023/07/03 04:40:51;;;;;;;6.93;1.65;;;20.20;99.90;;;;;;4974629;28;20039;-92
2023/07/03 04:43:17;;;;;;;2.65;1.45;;;20.40;99.90;;;;;;4973234;28;20031;-93
2023/07/03 04:45:45;;;;;;;3.70;1.50;;;20.60;99.90;;;;;;4973438;28;20023;-92
2023/07/03 04:48:11;;;;;;;3.38;1.20;;;20.60;99.90;;;;;;4973550;28;20051;-89
2023/07/03 04:50:37;;;;;;;5.25;2.35;;;20.80;99.90;;;;;;4973817;28;20023;-91
2023/07/03 04:53:03;;;;;;;2.58;1.52;;;21.00;99.90;;;;;;4973125;28;20050;-91
2023/07/03 04:55:30;;;;;;;5.47;1.80;;;21.20;99.90;;;;;;4973161;28;20433;-91
2023/07/03 04:57:57;;;;;;;2.58;1.50;;;21.40;99.90;;;;;;4972969;28;20047;-89
2023/07/03 05:00:24;;;;;;;4.72;1.75;;;21.50;99.90;;;;;;4974107;28;20023;-91
2023/07/03 05:02:51;;;;;;;3.25;1.73;;;21.70;99.90;;;;;;4972993;28;20031;-91
2023/07/03 05:05:18;;;;;;;3.55;1.67;;;21.80;99.90;;;;;;4973183;28;20084;-91
2023/07/03 05:07:45;;;;;;;4.38;1.50;;;22.00;99.90;;;;;;4972882;28;20066;-91
2023/07/03 05:10:13;;;;;;;3.95;2.10;;;22.20;99.90;;;;;;4972764;28;20051;-90
2023/07/03 05:12:39;;;;;;;4.60;1.55;;;22.40;98.60;;;;;;4974980;28;20070;-90
2023/07/03 05:15:08;;;;;;;2.78;1.83;;;22.50;96.70;;;;;;4975581;28;20503;-91
2023/07/03 05:17:35;;;;;;;5.25;2.13;;;22.60;95.90;;;;;;4973618;28;20038;-91
2023/07/03 05:20:01;;;;;;;5.45;1.45;;;22.60;95.40;;;;;;4973808;28;20047;-91
2023/07/03 05:22:27;;;;;;;4.57;1.35;;;22.50;94.10;;;;;;4973348;28;20035;-90
2023/07/03 05:24:55;;;;;;;4.47;1.85;;;22.60;93.40;;;;;;4973446;28;20081;-91
2023/07/03 05:27:20;;;;;;;4.90;1.85;;;22.80;92.30;;;;;;4972476;28;20033;-90
2023/07/03 05:29:46;;;;;;;6.07;1.63;;;22.90;92.50;;;;;;4973513;28;20023;-91
2023/07/03 05:32:12;;;;;;;3.25;1.65;;;23.00;92.60;;;;;;4972110;28;20031;-90
2023/07/03 05:34:38;;;;;;;5.10;1.98;;;23.10;92.40;;;;;;4973600;28;20041;-91
2023/07/03 05:37:05;;;;;;;4.93;1.95;;;23.30;92.40;;;;;;4973455;28;20164;-91
2023/07/03 05:39:31;;;;;;;6.13;1.63;;;23.50;90.10;;;;;;4972400;28;20056;-91
2023/07/03 05:41:56;;;;;;;8.88;2.40;;;23.70;87.00;;;;;;4970960;28;20023;-90
2023/07/03 05:44:22;;;;;;;2.08;1.52;;;23.90;84.50;;;;;;4972334;28;20506;-91
2023/07/03 05:46:48;;;;;;;3.03;1.30;;;24.10;81.90;;;;;;4972275;28;20414;-92
2023/07/03 05:49:13;;;;;;;4.10;1.20;;;24.30;81.50;;;;;;4971809;28;20439;-90
2023/07/03 05:51:39;;;;;;;4.35;1.40;;;24.50;79.70;;;;;;4973322;28;20380;-90
2023/07/03 05:54:05;;;;;;;2.90;1.27;;;24.80;78.00;;;;;;4971879;28;20035;-91
2023/07/03 05:56:30;;;;;;;5.82;1.80;;;25.00;76.00;;;;;;4971416;28;20031;-90
2023/07/03 05:58:56;;;;;;;5.18;1.55;;;25.00;74.30;;;;;;4972018;28;20035;-90
2023/07/03 06:01:22;;;;;;;3.08;1.25;;;25.30;73.20;;;;;;4973316;28;20072;-90
2023/07/03 06:03:48;;;;;;;3.15;1.38;;;25.90;71.00;;;;;;4971776;28;20571;-90
2023/07/03 06:06:14;;;;;;;12.18;1.60;;;27.10;64.90;;;;;;4971321;28;20037;-91
2023/07/03 06:08:41;;;;;;;2.97;1.42;;;28.50;60.10;;;;;;4971798;28;20155;-89
2023/07/03 06:11:07;;;;;;;1.95;1.40;;;29.90;55.50;;;;;;4978018;28;20019;-89
2023/07/03 06:13:32;;;;;;;5.47;1.38;;;31.10;51.40;;;;;;4974924;28;20053;-89
2023/07/03 06:15:58;;;;;;;5.38;1.45;;;32.00;48.30;;;;;;4971994;28;20399;-89
2023/07/03 06:18:24;;;;;;;3.85;2.08;;;33.30;44.50;;;;;;4973002;28;20118;-90
2023/07/03 06:20:50;;;;;;;7.75;1.73;;;34.20;42.90;;;;;;4971450;28;20023;-89
2023/07/03 06:23:16;;;;;;;4.40;1.60;;;34.70;41.50;;;;;;4972452;28;20041;-91
2023/07/03 06:25:42;;;;;;;9.65;1.80;;;34.80;39.70;;;;;;4971825;28;20030;-91
2023/07/03 06:28:07;;;;;;;3.30;1.45;;;34.80;39.60;;;;;;4972091;28;20019;-89
2023/07/03 06:30:33;;;;;;;3.95;1.52;;;35.00;38.80;;;;;;4971163;28;20023;-90
2023/07/03 06:32:59;;;;;;;4.47;1.58;;;35.60;37.30;;;;;;4972582;28;20511;-89
2023/07/03 06:35:25;;;;;;;4.63;1.55;;;35.80;37.20;;;;;;4970859;28;20026;-90
2023/07/03 06:37:55;;;;;;;2.72;1.52;;;36.00;35.30;;;;;;4983025;28;20050;-90
2023/07/03 06:40:21;;;;;;;2.65;1.40;;;36.50;33.60;;;;;;4983969;28;20026;-89
2023/07/03 06:42:47;;;;;;;7.95;1.83;;;36.40;33.40;;;;;;4971884;28;20026;-90
2023/07/03 06:45:13;;;;;;;4.10;1.30;;;36.60;33.20;;;;;;4972490;28;20027;-90
2023/07/03 06:47:39;;;;;;;4.10;1.55;;;36.40;33.90;;;;;;4971738;28;20398;-91
2023/07/03 06:50:05;;;;;;;2.35;1.40;;;36.80;33.20;;;;;;4972247;28;20026;-90
2023/07/03 06:52:34;;;;;;;2.70;1.40;;;36.80;33.00;;;;;;4971977;28;20023;-90
2023/07/03 06:54:59;;;;;;;2.63;1.58;;;36.10;33.60;;;;;;4974970;28;20037;-90
2023/07/03 06:57:25;;;;;;;6.40;1.80;;;36.20;34.10;;;;;;4970338;28;20122;-90
2023/07/03 06:59:51;;;;;;;2.42;1.25;;;37.00;33.40;;;;;;4970746;28;20034;-88
2023/07/03 07:02:17;;;;;;;1.45;1.10;;;37.10;33.10;;;;;;4970899;28;20536;-89
2023/07/03 07:04:44;;;;;;;4.57;1.70;;;37.50;32.50;;;;;;4971358;28;20030;-91
2023/07/03 07:07:09;;;;;;;2.70;1.30;;;37.60;31.00;;;;;;4971148;28;20030;-91
2023/07/03 07:09:35;;;;;;;5.43;1.50;;;37.40;30.80;;;;;;4972244;28;20489;-90
2023/07/03 07:12:00;;;;;;;2.83;1.20;;;37.40;31.80;;;;;;4971915;28;20051;-88
2023/07/03 07:14:26;;;;;;;2.70;1.55;;;37.50;31.90;;;;;;4972076;28;20446;-89
2023/07/03 07:16:52;;;;;;;4.75;1.42;;;37.60;31.80;;;;;;4972140;28;20526;-89
2023/07/03 07:19:17;;;;;;;2.85;1.38;;;37.70;31.00;;;;;;4971862;28;20039;-91
2023/07/03 07:21:44;;;;;;;2.33;1.33;;;37.40;31.00;;;;;;4972035;28;20495;-89
2023/07/03 07:24:21;;;;;;;3.10;1.63;;;37.30;31.00;;;;;;4971717;28;20031;-88
2023/07/03 07:26:48;;;;;;;2.08;1.20;;;37.40;30.30;;;;;;4970431;28;20062;-91
2023/07/03 07:29:13;;;;;;;2.55;1.45;;;37.40;31.50;;;;;;4970164;28;20034;-89
2023/07/03 07:31:39;;;;;;;2.50;1.38;;;37.60;31.50;;;;;;4970645;28;20031;-89
2023/07/03 07:34:07;;;;;;;7.57;1.90;;;37.80;31.80;;;;;;4972726;28;20026;-88
2023/07/03 07:36:33;;;;;;;3.15;1.98;;;37.80;31.50;;;;;;4971883;28;20054;-91
2023/07/03 07:39:00;;;;;;;4.00;1.80;;;37.30;32.50;;;;;;4972083;28;20061;-90
2023/07/03 07:41:27;;;;;;;2.85;1.85;;;37.30;32.80;;;;;;4973112;28;20023;-90
2023/07/03 07:43:55;;;;;;;3.83;2.28;;;37.30;32.30;;;;;;4972853;28;20487;-88
2023/07/03 07:46:26;;;;;;;5.15;2.53;;;37.30;33.70;;;;;;4971412;28;20058;-89
2023/07/03 07:48:52;;;;;;;6.40;2.10;;;37.10;33.70;;;;;;4972596;28;20054;-88
2023/07/03 07:51:18;;;;;;;4.55;2.40;;;36.90;33.90;;;;;;4971221;28;20023;-89
2023/07/03 07:53:43;;;;;;;4.55;2.10;;;36.80;33.20;;;;;;4987721;28;20044;-89
2023/07/03 07:56:10;;;;;;;7.22;2.30;;;36.60;33.90;;;;;;4997681;28;20019;-89
2023/07/03 07:58:36;;;;;;;3.92;2.25;;;36.90;34.80;;;;;;4990102;28;20065;-89
2023/07/03 08:01:03;;;;;;;5.25;2.15;;;37.10;33.90;;;;;;4983011;28;20483;-89
2023/07/03 08:03:28;;;;;;;9.95;2.05;;;37.10;33.20;;;;;;4973687;28;20026;-88
2023/07/03 08:06:03;;;;;;;3.30;2.08;;;37.20;32.40;;;;;;4973291;28;20033;-88
2023/07/03 08:08:30;;;;;;;4.25;2.28;;;37.20;32.20;;;;;;4973663;28;20486;-89
2023/07/03 08:10:58;;;;;;;4.10;2.30;;;37.20;33.00;;;;;;4973635;28;20042;-88
2023/07/03 08:13:25;;;;;;;2.97;1.70;;;37.50;33.40;;;;;;4973597;28;20487;-88
2023/07/03 08:15:51;;;;;;;3.85;2.65;;;37.20;32.80;;;;;;4973748;28;20068;-89
2023/07/03 08:18:17;;;;;;;8.02;4.53;;;37.10;32.30;;;;;;4973494;28;20070;-90
2023/07/03 08:20:44;;;;;;;4.57;2.20;;;37.10;32.60;;;;;;4973901;28;20019;-90
2023/07/03 08:23:10;;;;;;;3.78;2.20;;;37.20;32.60;;;;;;4973556;28;20042;-89
2023/07/03 08:25:36;;;;;;;5.32;2.20;;;37.20;33.50;;;;;;4973341;28;20114;-89
2023/07/03 08:28:02;;;;;;;5.57;2.13;;;37.20;33.60;;;;;;4972467;28;20113;-90
2023/07/03 08:30:28;;;;;;;4.90;2.03;;;36.90;33.60;;;;;;4973831;28;20069;-88
2023/07/03 08:32:54;;;;;;;5.72;1.98;;;37.10;31.70;;;;;;4974170;28;20037;-89
2023/07/03 08:35:20;;;;;;;6.70;2.03;;;37.00;29.20;;;;;;4974210;28;20034;-90
2023/07/03 08:37:46;;;;;;;5.45;2.13;;;37.30;30.30;;;;;;4972320;28;20051;-88
2023/07/03 08:40:16;;;;;;;5.90;2.17;;;36.70;29.70;;;;;;4973502;28;20041;-88
2023/07/03 08:42:47;;;;;;;5.32;2.28;;;36.10;31.00;;;;;;4974415;28;20027;-89
2023/07/03 08:45:16;;;;;;;4.75;2.10;;;36.00;31.30;;;;;;4974548;28;20026;-88
2023/07/03 08:47:44;;;;;;;3.58;2.13;;;36.10;30.30;;;;;;4976429;28;20081;-89
2023/07/03 08:50:15;;;;;;;4.75;1.83;;;36.30;30.00;;;;;;4988873;28;20037;-88
2023/07/03 08:52:49;;;;;;;5.88;2.35;;;36.40;30.70;;;;;;4984778;28;20069;-90
2023/07/03 08:55:20;;;;;;;;;;;36.50;29.70;;;;;;4974768;28;20031;-88
2023/07/03 08:57:46;;;;;;;3.47;2.05;;;36.20;30.00;;;;;;4974333;28;20386;-89
2023/07/03 09:00:12;;;;;;;4.18;2.05;;;36.70;30.40;;;;;;4972666;28;20042;-90
2023/07/03 09:02:45;;;;;;;5.30;1.90;;;36.80;29.50;;;;;;4973576;28;20027;-90
2023/07/03 09:05:36;;;;;;;5.53;1.98;;;36.80;29.00;;;;;;4973345;28;20015;-90
2023/07/03 09:08:07;;;;;;;6.28;2.70;;;36.50;29.80;;;;;;4972808;28;20093;-87
2023/07/03 09:10:47;;;;;;;5.28;2.30;;;36.80;29.10;;;;;;4972584;28;20506;-89
2023/07/03 09:13:20;;;;;;;3.88;1.85;;;37.10;29.80;;;;;;4972611;28;20063;-88
2023/07/03 09:16:12;;;;;;;7.22;2.30;;;36.90;28.70;;;;;;4972301;28;20031;-90
2023/07/03 09:18:58;;;;;;;4.30;2.13;;;37.10;27.80;;;;;;4972357;28;20042;-89
2023/07/03 09:21:25;;;;;;;4.82;3.05;;;37.10;28.20;;;;;;4972585;28;20039;-89
2023/07/03 09:24:14;;;;;;;6.45;2.92;;;37.30;28.00;;;;;;4972502;28;20027;-88
2023/07/03 09:26:55;;;;;;;7.25;2.75;;;37.50;26.90;;;;;;4973908;28;20030;-90
2023/07/03 09:29:22;;;;;;;9.73;2.92;;;37.60;26.60;;;;;;4973105;28;20065;-88
2023/07/03 09:31:48;;;;;;;3.63;2.78;;;37.30;27.00;;;;;;4973125;28;20031;-90
2023/07/03 09:34:13;;;;;;;8.68;3.13;;;37.40;26.70;;;;;;4973276;28;20035;-91
2023/07/03 09:36:41;;;;;;;5.07;3.20;;;37.10;26.40;;;;;;4973550;28;20169;-89
2023/07/03 09:39:17;;;;;;;5.97;3.13;;;36.90;27.00;;;;;;4973600;28;20031;-91
2023/07/03 09:41:44;;;;;;;3.80;2.65;;;37.10;27.50;;;;;;4972394;28;20229;-88
2023/07/03 09:44:17;;;;;;;4.25;3.28;;;36.80;27.40;;;;;;4972889;28;20316;-89
2023/07/03 09:46:45;;;;;;;4.75;2.80;;;36.90;27.10;;;;;;4972536;28;20038;-90
2023/07/03 09:49:28;;;;;;;5.38;3.03;;;36.90;26.50;;;;;;4971410;28;20018;-91
2023/07/03 09:51:57;;;;;;;10.27;3.33;;;36.90;26.90;;;;;;4976048;28;20035;-88
2023/07/03 09:54:27;;;;;;;5.60;3.25;;;37.10;27.60;;;;;;4977350;28;20033;-90
2023/07/03 09:56:53;;;;;;;7.65;3.50;;;37.40;27.60;;;;;;4972972;28;20030;-91
2023/07/03 09:59:21;;;;;;;4.72;2.58;;;37.60;27.40;;;;;;4972063;28;20134;-89
2023/07/03 10:01:48;;;;;;;5.68;2.97;;;37.70;27.80;;;;;;4972326;28;20030;-91
2023/07/03 10:04:15;;;;;;;4.90;3.60;;;37.60;27.30;;;;;;4973095;28;20027;-90
2023/07/03 10:06:58;;;;;;;12.15;4.40;;;37.50;27.70;;;;;;4971530;28;20035;-90
2023/07/03 10:09:28;;;;;;;5.18;4.22;;;36.70;26.50;;;;;;4972423;28;20031;-90
2023/07/03 10:12:28;;;;;;;11.07;4.40;;;35.90;27.50;;;;;;4972678;28;20023;-90
2023/07/03 10:14:57;;;;;;;8.63;4.05;;;35.10;28.10;;;;;;4972041;28;20038;-89
2023/07/03 10:17:54;;;;;;;8.60;4.43;;;34.30;28.40;;;;;;4971830;28;20442;-91
2023/07/03 10:20:28;;;;;;;6.65;3.97;;;33.50;29.40;;;;;;4971900;28;20100;-91
2023/07/03 10:22:56;;;;;;;12.05;4.28;;;33.10;31.30;;;;;;4972249;28;20037;-88
2023/07/03 10:25:31;;;;;;;14.00;5.30;;;32.70;29.30;;;;;;4972890;28;20019;-91
2023/07/03 10:28:03;;;;;;;7.35;4.55;;;32.50;29.90;;;;;;4972566;28;20061;-88
2023/07/03 10:30:34;;;;;;;7.72;5.32;;;32.30;30.60;;;;;;4972160;28;20023;-90
2023/07/03 10:33:03;;;;;;;8.73;6.10;;;32.20;30.00;;;;;;4971275;28;20062;-92
2023/07/03 10:35:32;;;;;;;8.15;5.80;;;32.00;29.10;;;;;;4971612;28;20050;-91
2023/07/03 10:38:39;;;;;;;10.90;5.97;;;31.70;29.00;;;;;;4971366;28;20080;-91
2023/07/03 10:41:19;;;;;;;8.43;5.53;;;31.50;29.60;;;;;;5001653;28;20043;-92
2023/07/03 10:43:51;;;;;;;12.00;5.85;;;31.30;29.80;;;;;;4972032;28;20027;-92
2023/07/03 10:46:25;;;;;;;10.23;5.57;;;31.00;30.00;;;;;;4976162;28;20023;-91
2023/07/03 10:48:53;;;;;;;6.97;5.22;;;30.70;32.00;;;;;;4970677;28;20027;-90
2023/07/03 10:51:31;;;;;;;11.75;6.53;;;30.60;31.90;;;;;;4971210;28;20037;-92
2023/07/03 10:54:06;;;;;;;10.93;6.78;;;30.70;32.90;;;;;;4970447;28;20433;-91
2023/07/03 10:56:35;;;;;;;9.70;6.22;;;30.70;33.50;;;;;;4970973;28;20165;-94
2023/07/03 10:59:00;;;;;;;9.32;5.40;;;30.70;32.40;;;;;;4971109;28;20031;-93
2023/07/03 11:01:40;;;;;;;8.75;6.28;;;30.60;32.80;;;;;;4978332;28;20107;-92
2023/07/03 11:04:25;;;;;;;9.63;6.07;;;30.50;33.20;;;;;;4990818;28;20035;-91
2023/07/03 11:07:04;;;;;;;9.57;5.57;;;30.50;33.60;;;;;;4976139;28;20041;-91
2023/07/03 11:09:43;;;;;;;8.73;5.43;;;30.50;34.10;;;;;;4972328;28;20277;-93
2023/07/03 11:12:43;;;;;;;9.40;5.20;;;30.60;34.50;;;;;;4972846;28;20053;-90
2023/07/03 11:15:21;;;;;;;9.52;6.38;;;30.60;32.40;;;;;;5001436;28;20027;-90
2023/07/03 11:18:04;;;;;;;11.00;6.20;;;30.70;32.50;;;;;;4973545;28;20042;-91
2023/07/03 11:20:43;;;;;;;9.45;6.05;;;30.60;34.00;;;;;;4972773;28;20019;-91
2023/07/03 11:23:27;;;;;;;11.20;6.35;;;30.50;32.90;;;;;;4972530;28;20011;-90
2023/07/03 11:26:17;;;;;;;10.13;5.88;;;30.40;34.40;;;;;;4989590;28;20034;-90
2023/07/03 11:28:48;;;;;;;8.95;5.25;;;30.60;34.40;;;;;;4993639;28;20034;-89
2023/07/03 11:31:16;;;;;;;9.65;5.95;;;30.70;35.50;;;;;;4981916;28;20023;-90
2023/07/03 11:33:43;;;;;;;9.68;5.82;;;30.90;35.40;;;;;;4974772;28;20034;-91
2023/07/03 11:36:39;;;;;;;10.18;6.30;;;31.00;34.50;;;;;;4972533;28;20023;-89
2023/07/03 11:39:19;;;;;;;14.13;6.30;;;31.00;33.70;;;;;;5027473;28;20125;-91
2023/07/03 11:41:54;;;;;;;16.50;7.22;;;31.00;34.00;;;;;;5009931;28;20060;-90
2023/07/03 11:44:28;;;;;;;13.95;5.90;;;31.10;35.00;;;;;;5027457;28;20085;-91
2023/07/03 11:47:27;;;;;;;12.48;6.30;;;31.00;35.20;;;;;;5019193;28;20021;-89
2023/07/03 11:49:59;;;;;;;12.05;6.38;;;31.00;36.10;;;;;;5010346;28;20028;-90
2023/07/03 11:52:30;;;;;;;8.07;6.05;;;30.80;36.20;;;;;;5009670;28;20531;-91
2023/07/03 11:55:07;;;;;;;11.50;6.80;;;31.10;35.60;;;;;;5009970;28;20029;-91
2023/07/03 11:57:42;;;;;;;15.05;7.05;;;31.10;33.70;;;;;;5008647;28;20042;-90
2023/07/03 12:00:26;;;;;;;9.88;6.50;;;31.20;33.70;;;;;;4988513;28;20401;-89
2023/07/03 12:03:01;;;;;;;11.88;7.53;;;31.30;34.30;;;;;;4990079;28;20117;-90
2023/07/03 12:05:42;;;;;;;10.93;7.10;;;31.30;32.60;;;;;;4990001;28;20030;-91
2023/07/03 12:08:26;;;;;;;12.55;7.00;;;31.20;32.80;;;;;;5007427;28;20030;-91
2023/07/03 12:10:57;;;;;;;12.80;7.40;;;31.20;33.70;;;;;;5007440;28;20033;-91
2023/07/03 12:13:41;;;;;;;11.10;6.80;;;31.20;33.70;;;;;;5007649;28;20026;-93
2023/07/03 12:16:31;;;;;;;12.23;7.20;;;31.00;32.60;;;;;;5007184;28;20026;-89
2023/07/03 12:19:04;;;;;;;10.73;6.90;;;30.80;35.30;;;;;;4989842;28;20038;-91
2023/07/03 12:21:45;;;;;;;14.70;6.68;;;31.00;34.30;;;;;;4989476;28;20032;-94
2023/07/03 12:24:37;;;;;;;15.00;7.57;;;31.10;33.00;;;;;;4989419;28;20067;-90
2023/07/03 12:27:05;;;;;;;13.50;7.07;;;31.10;34.70;;;;;;4990442;28;20044;-91
2023/07/03 12:29:34;;;;;;;14.15;7.68;;;31.20;33.60;;;;;;4989100;28;20036;-92
2023/07/03 12:32:07;;;;;;;11.05;6.63;;;31.30;33.60;;;;;;4988926;28;20582;-89
2023/07/03 12:34:39;;;;;;;13.00;7.55;;;31.40;33.50;;;;;;4989232;28;20026;-90
2023/07/03 12:37:14;;;;;;;11.13;7.00;;;31.40;34.40;;;;;;5006364;28;20026;-91
2023/07/03 12:39:42;;;;;;;8.88;6.57;;;31.30;34.40;;;;;;5006828;28;20092;-91
2023/07/03 12:42:10;;;;;;;11.68;6.65;;;31.20;33.90;;;;;;4990439;28;20097;-88
2023/07/03 12:44:36;;;;;;;10.57;6.78;;;31.30;34.60;;;;;;4989086;28;20026;-90
2023/07/03 12:47:10;;;;;;;8.93;5.90;;;31.30;35.00;;;;;;4989244;28;20371;-90
2023/07/03 12:49:49;;;;;;;10.82;7.00;;;31.40;35.10;;;;;;4981852;28;20022;-90
2023/07/03 12:52:15;;;;;;;12.80;6.25;;;31.60;34.60;;;;;;4975251;28;20061;-90
2023/07/03 12:54:40;;;;;;;8.98;6.30;;;31.30;33.90;;;;;;4976037;28;20034;-90
2023/07/03 12:57:08;;;;;;;12.10;7.05;;;31.10;34.60;;;;;;4975907;28;20026;-91